Map

Track Data

SID SEASON NUMBER BASIN SUBBASIN NAME ISO_TIME NATURE LAT LON WMO_WIND WMO_PRES WMO_AGENCY TRACK_TYPE DIST2LAND LANDFALL IFLAG USA_AGENCY USA_ATCF_ID USA_LAT USA_LON USA_RECORD USA_STATUS USA_WIND USA_PRES USA_SSHS USA_R34_NE USA_R34_SE USA_R34_SW USA_R34_NW USA_R50_NE USA_R50_SE USA_R50_SW USA_R50_NW USA_R64_NE USA_R64_SE USA_R64_SW USA_R64_NW USA_POCI USA_ROCI USA_RMW USA_EYE TOKYO_LAT TOKYO_LON TOKYO_GRADE TOKYO_WIND TOKYO_PRES TOKYO_R50_DIR TOKYO_R50_LONG TOKYO_R50_SHORT TOKYO_R30_DIR TOKYO_R30_LONG TOKYO_R30_SHORT TOKYO_LAND CMA_LAT CMA_LON CMA_CAT CMA_WIND CMA_PRES HKO_LAT HKO_LON HKO_CAT HKO_WIND HKO_PRES NEWDELHI_LAT NEWDELHI_LON NEWDELHI_GRADE NEWDELHI_WIND NEWDELHI_PRES NEWDELHI_CI NEWDELHI_DP NEWDELHI_POCI REUNION_LAT REUNION_LON REUNION_TYPE REUNION_WIND REUNION_PRES REUNION_TNUM REUNION_CI REUNION_RMW REUNION_R34_NE REUNION_R34_SE REUNION_R34_SW REUNION_R34_NW REUNION_R50_NE REUNION_R50_SE REUNION_R50_SW REUNION_R50_NW REUNION_R64_NE REUNION_R64_SE REUNION_R64_SW REUNION_R64_NW BOM_LAT BOM_LON BOM_TYPE BOM_WIND BOM_PRES BOM_TNUM BOM_CI BOM_RMW BOM_R34_NE BOM_R34_SE BOM_R34_SW BOM_R34_NW BOM_R50_NE BOM_R50_SE BOM_R50_SW BOM_R50_NW BOM_R64_NE BOM_R64_SE BOM_R64_SW BOM_R64_NW BOM_ROCI BOM_POCI BOM_EYE BOM_POS_METHOD BOM_PRES_METHOD NADI_LAT NADI_LON NADI_CAT NADI_WIND NADI_PRES WELLINGTON_LAT WELLINGTON_LON WELLINGTON_WIND WELLINGTON_PRES DS824_LAT DS824_LON DS824_STAGE DS824_WIND DS824_PRES TD9636_LAT TD9636_LON TD9636_STAGE TD9636_WIND TD9636_PRES TD9635_LAT TD9635_LON TD9635_WIND TD9635_PRES TD9635_ROCI NEUMANN_LAT NEUMANN_LON NEUMANN_CLASS NEUMANN_WIND NEUMANN_PRES MLC_LAT MLC_LON MLC_CLASS MLC_WIND MLC_PRES USA_GUST BOM_GUST BOM_GUST_PER REUNION_GUST REUNION_GUST_PER USA_SEAHGT USA_SEARAD_NE USA_SEARAD_SE USA_SEARAD_SW USA_SEARAD_NW STORM_SPEED STORM_DIR
1988234N13299 1988 58 NA CS NOT_NAMED 1988-08-20 18:00:00 TS 12.5000 -60.7000 25 hurdat_atl main 204 202 O_____________ hurdat_atl AL161988 12.5000 -60.7000 TD 25 -1 6 289
1988234N13299 1988 58 NA CS NOT_NAMED 1988-08-20 21:00:00 TS 12.5946 -60.9800 main 212 212 P_____________ AL161988 12.5946 -60.9800 TD 25 -1 8 284
1988234N13299 1988 58 NA CS NOT_NAMED 1988-08-21 00:00:00 TS 12.7000 -61.5000 25 hurdat_atl main 223 223 O_____________ hurdat_atl AL161988 12.7000 -61.5000 TD 25 -1 14 279
1988234N13299 1988 58 NA CS NOT_NAMED 1988-08-21 03:00:00 TS 12.8279 -62.4102 main 235 235 P_____________ AL161988 12.8279 -62.4102 TD 27 -1 20 279
1988234N13299 1988 58 NA CS NOT_NAMED 1988-08-21 06:00:00 TS 13.0000 -63.5000 30 hurdat_atl main 261 261 O_____________ hurdat_atl AL161988 13.0000 -63.5000 TD 30 -1 22 282
1988234N13299 1988 58 NA CS NOT_NAMED 1988-08-21 09:00:00 TS 13.2578 -64.5745 main 305 305 P_____________ AL161988 13.2578 -64.5745 TD 27 -1 20 284
1988234N13299 1988 58 NA CS NOT_NAMED 1988-08-21 12:00:00 TS 13.5000 -65.5000 25 hurdat_atl main 329 325 O_____________ hurdat_atl AL161988 13.5000 -65.5000 TD 25 -1 15 283
1988234N13299 1988 58 NA CS NOT_NAMED 1988-08-21 15:00:00 TS 13.5992 -66.0605 main 335 335 P_____________ AL161988 13.5992 -66.0605 TD 25 -1 10 282
1988234N13299 1988 58 NA CS NOT_NAMED 1988-08-21 18:00:00 TS 13.7000 -66.5000 25 hurdat_atl main 347 338 O_____________ hurdat_atl AL161988 13.7000 -66.5000 TD 25 -1 11 291
1988234N13299 1988 58 NA CS NOT_NAMED 1988-08-21 21:00:00 TS 13.9799 -67.0770 main 343 333 P_____________ AL161988 13.9799 -67.0770 TD 25 -1 13 293
1988234N13299 1988 58 NA CS NOT_NAMED 1988-08-22 00:00:00 TS 14.2000 -67.7000 25 hurdat_atl main 334 283 O_____________ hurdat_atl AL161988 14.2000 -67.7000 TD 25 -1 12 276
1988234N13299 1988 58 NA CS NOT_NAMED 1988-08-22 03:00:00 TS 14.0998 -68.3284 main 283 234 P_____________ AL161988 14.0998 -68.3284 TD 25 -1 13 261
1988234N13299 1988 58 NA CS NOT_NAMED 1988-08-22 06:00:00 TS 14.0000 -69.0000 25 hurdat_atl main 234 225 O_____________ hurdat_atl AL161988 14.0000 -69.0000 TD 25 -1 12 274
1988234N13299 1988 58 NA CS NOT_NAMED 1988-08-22 09:00:00 TS 14.1953 -69.5855 main 237 236 P_____________ AL161988 14.1953 -69.5855 TD 27 -1 15 289
1988234N13299 1988 58 NA CS NOT_NAMED 1988-08-22 12:00:00 TS 14.5000 -70.5000 30 hurdat_atl main 258 246 O_____________ hurdat_atl AL161988 14.5000 -70.5000 TD 30 -1 26 282
1988234N13299 1988 58 NA CS NOT_NAMED 1988-08-22 15:00:00 TS 14.7543 -72.2568 main 276 276 P_____________ AL161988 14.7543 -72.2568 TD 30 -1 34 278
1988234N13299 1988 58 NA CS NOT_NAMED 1988-08-22 18:00:00 TS 15.0000 -74.0000 30 hurdat_atl main 335 313 O_____________ hurdat_atl AL161988 15.0000 -74.0000 TD 30 -1 26 283
1988234N13299 1988 58 NA CS NOT_NAMED 1988-08-22 21:00:00 TS 15.3227 -74.8798 main 320 281 P_____________ AL161988 15.3227 -74.8798 TD 30 -1 14 290
1988234N13299 1988 58 NA CS NOT_NAMED 1988-08-23 00:00:00 TS 15.5000 -75.4000 30 hurdat_atl main 281 276 O_____________ hurdat_atl AL161988 15.5000 -75.4000 TD 30 -1 10 271
1988234N13299 1988 58 NA CS NOT_NAMED 1988-08-23 03:00:00 TS 15.3386 -75.8675 main 292 291 P_____________ AL161988 15.3386 -75.8675 TD 30 -1 12 245
1988234N13299 1988 58 NA CS NOT_NAMED 1988-08-23 06:00:00 TS 15.0000 -76.5000 30 hurdat_atl main 311 308 O_____________ hurdat_atl AL161988 15.0000 -76.5000 TD 30 -1 20 247
1988234N13299 1988 58 NA CS NOT_NAMED 1988-08-23 09:00:00 TS 14.5621 -77.7593 main 352 352 P_____________ AL161988 14.5621 -77.7593 TD 27 -1 25 254
1988234N13299 1988 58 NA CS NOT_NAMED 1988-08-23 12:00:00 TS 14.3000 -79.0000 25 hurdat_atl main 426 391 O_____________ hurdat_atl AL161988 14.3000 -79.0000 TD 25 -1 17 270
1988234N13299 1988 58 NA CS NOT_NAMED 1988-08-23 15:00:00 TS 14.5508 -79.5519 main 379 333 P_____________ AL161988 14.5508 -79.5519 TD 25 -1 12 306
1988234N13299 1988 58 NA CS NOT_NAMED 1988-08-23 18:00:00 TS 15.0000 -80.0000 25 hurdat_atl main 333 249 O_____________ hurdat_atl AL161988 15.0000 -80.0000 TD 25 -1 15 301
1988234N13299 1988 58 NA CS NOT_NAMED 1988-08-23 21:00:00 TS 15.3077 -80.8327 main 249 164 P_____________ AL161988 15.3077 -80.8327 TD 25 -1 18 289
1988234N13299 1988 58 NA CS NOT_NAMED 1988-08-24 00:00:00 TS 15.6000 -81.8000 25 hurdat_atl main 154 100 O_____________ hurdat_atl AL161988 15.6000 -81.8000 TD 25 -1 20 289
1988234N13299 1988 58 NA CS NOT_NAMED 1988-08-24 03:00:00 TS 15.9601 -82.7793 main 101 74 P_____________ AL161988 15.9601 -82.7793 TD 25 -1 19 288
1988234N13299 1988 58 NA CS NOT_NAMED 1988-08-24 06:00:00 TS 16.2000 -83.7000 25 hurdat_atl main 74 44 O_____________ hurdat_atl AL161988 16.2000 -83.7000 TD 25 -1 16 278
1988234N13299 1988 58 NA CS NOT_NAMED 1988-08-24 09:00:00 TS 16.1800 -84.4533 main 39 11 P_____________ AL161988 16.1800 -84.4533 TD 25 -1 14 262
1988234N13299 1988 58 NA CS NOT_NAMED 1988-08-24 12:00:00 TS 16.0000 -85.1000 25 hurdat_atl main 11 O_____________ hurdat_atl AL161988 16.0000 -85.1000 TD 25 -1 13 254

About IBTrACS Database

This database is a web-friendly format of International Best Track Archive for Climate Stewardship (IBTrACS), a global best track data archive curated by NOAA dating back to 1842.

Updated: 2021-11-26